Time;durP1;ratioP1;P1;durP2;ratioP2;P2;SDS_P1;SDS_P2;PMS_P1;PMS_P2;Temp;Humidity;BMP_temperature;BMP_pressure;BME280_temperature;BME280_humidity;BME280_pressure;Samples;Min_cycle;Max_cycle;Signal;HPM_P1;HPM_P2
2023/06/01 00:17:28;;;;;;;9.90;5.10;;;10.50;94.00;;;;;;4786825;29;20727;-84
2023/06/01 00:43:02;;;;;;;8.73;4.20;;;10.20;95.90;;;;;;4763213;29;20228;-83
2023/06/01 01:13:43;;;;;;;7.40;4.10;;;9.60;98.40;;;;;;4756937;29;20208;-82
2023/06/01 01:38:39;;;;;;;6.60;4.30;;;9.40;99.50;;;;;;4684025;30;20540;-83
2023/06/01 01:54:15;;;;;;;12.77;9.57;;;9.20;99.90;;;;;;4621283;30;20782;-83
2023/06/01 02:19:16;;;;;;;8.63;6.00;;;8.70;99.90;;;;;;4642874;30;20226;-83
2023/06/01 02:34:44;;;;;;;8.90;6.33;;;8.50;99.90;;;;;;4664909;30;20345;-84
2023/06/01 03:09:52;;;;;;;11.37;5.77;;;9.00;99.90;;;;;;4755408;29;20541;-85
2023/06/01 03:30:39;;;;;;;11.33;5.60;;;9.60;99.90;;;;;;4656501;30;20541;-82
2023/06/01 05:01:24;;;;;;;8.57;4.10;;;17.10;57.80;;;;;;4539420;30;20544;-83
2023/06/01 05:27:19;;;;;;;7.50;4.00;;;18.30;52.80;;;;;;4671131;30;20272;-85
2023/06/01 05:31:40;;;;;;;8.33;4.40;;;18.60;52.50;;;;;;4673053;30;20277;-85
2023/06/01 05:52:00;;;;;;;20.57;4.80;;;19.00;48.50;;;;;;4659535;30;20454;-83
2023/06/01 06:22:59;;;;;;;7.73;4.03;;;19.90;47.80;;;;;;4617542;30;20308;-84
2023/06/01 06:53:25;;;;;;;5.97;3.70;;;20.30;45.80;;;;;;4710602;29;20208;-82
2023/06/01 07:18:49;;;;;;;5.37;3.30;;;21.80;44.90;;;;;;4639752;30;20231;-83
2023/06/01 07:49:18;;;;;;;8.32;3.53;;;22.30;43.10;;;;;;4637380;29;20263;-80
2023/06/01 08:19:07;;;;;;;5.18;2.40;;;22.80;41.40;;;;;;4598211;30;20647;-81
2023/06/01 08:44:42;;;;;;;2.88;2.58;;;23.50;39.60;;;;;;4576970;30;20862;-80
2023/06/01 09:05:19;;;;;;;2.85;2.65;;;23.30;40.70;;;;;;4606411;29;20453;-83
2023/06/01 09:25:27;;;;;;;6.38;3.00;;;24.00;40.60;;;;;;4605980;30;20607;-84
2023/06/01 11:22:36;;;;;;;4.82;3.08;;;24.40;40.70;;;;;;6012620;23;20165;-79
2023/06/01 11:26:56;;;;;;;5.30;3.00;;;24.40;40.20;;;;;;5886037;23;20619;-83
2023/06/01 11:52:21;;;;;;;4.63;2.90;;;24.70;41.10;;;;;;5866954;23;20556;-82
2023/06/01 12:43:24;;;;;;;4.68;2.97;;;26.80;40.40;;;;;;5707161;24;20607;-84
2023/06/01 13:03:55;;;;;;;4.25;2.70;;;27.20;40.00;;;;;;5555809;25;20258;-82
2023/06/01 13:24:07;;;;;;;4.55;3.00;;;27.80;38.00;;;;;;5542832;25;20217;-83
2023/06/01 13:49:37;;;;;;;3.80;2.78;;;28.20;38.10;;;;;;5677160;24;20236;-79
2023/06/01 14:39:50;;;;;;;2.70;2.40;;;33.70;37.60;;;;;;5689326;24;20658;-80
2023/06/01 17:22:01;;;;;;;5.70;3.17;;;24.70;40.60;;;;;;5665343;24;20276;-80
2023/06/01 17:47:50;;;;;;;5.50;3.25;;;24.10;41.60;;;;;;5911659;23;20200;-84
2023/06/01 18:28:32;;;;;;;4.22;3.40;;;22.90;44.10;;;;;;5891908;23;20864;-80
2023/06/01 18:48:55;;;;;;;7.95;3.45;;;22.20;43.20;;;;;;5760712;24;20504;-81
2023/06/01 20:29:50;;;;;;;10.60;4.50;;;19.70;47.20;;;;;;5613649;25;20998;-82
2023/06/01 20:50:28;;;;;;;6.50;4.20;;;19.20;50.60;;;;;;5790490;24;20172;-83
2023/06/01 21:10:49;;;;;;;8.97;4.47;;;19.30;55.90;;;;;;5599147;25;20193;-82
2023/06/01 21:35:57;;;;;;;11.47;4.67;;;19.20;62.40;;;;;;5613723;24;20356;-82
2023/06/01 21:56:27;;;;;;;10.80;5.30;;;18.30;73.00;;;;;;5653486;24;20199;-81
2023/06/01 22:26:24;;;;;;;7.47;5.40;;;16.90;90.70;;;;;;5812917;23;20514;-83
2023/06/01 22:46:50;;;;;;;10.70;5.47;;;16.30;93.10;;;;;;5571148;25;20664;-82
2023/06/01 23:17:03;;;;;;;9.40;6.30;;;15.80;95.90;;;;;;5534429;24;20520;-83
2023/06/01 23:37:30;;;;;;;12.87;5.20;;;15.30;94.60;;;;;;5637656;24;20791;-81
2023/06/01 23:53:12;;;;;;;11.00;6.00;;;14.90;95.70;;;;;;5697971;24;20192;-81
2023/06/01 23:57:31;;;;;;;8.60;5.83;;;14.80;95.70;;;;;;5648538;24;20225;-81
